Welkom op de weersite van Veghel e.o.

Hopend op weer een interessant weer jaar.


Webcam Veghel  Webcam Veghel


Onweer radar Meer informatie blitzortung!


Regen radar Meer informatie rain snow radar


U vindt ons ook hier:

Het Weer Aktueel

European Weather Network

Weather Underground

Benelux Weer Netwerk

AWEKAS


Het weer levert geen direct gevaar op.    Er zijn geen waarschuwingen afgegeven.

METAR rapporten vliegvelden

   
EHAM - Amsterdam
Gewijzigd: 30-03-2020 15:25
Gedeeltelijk bewolkt  
Gedeeltelijk bewolkt  
   Wind: NW 24.1 km/h
Wind: NW 24.1 km/h
Temperatuur: 8°C
Voelt als: 4°C
Dauwpunt: 2°C
Vochtigheid: 66%
Barometer: 1029 hPa
Bewolking: Partly Cloudy
Zicht: meer dan 10 km
Bewolking: Licht bewolkt 2300 ft,
Gedeeltelijk bewolkt 3900 ft
EHAM 301325Z 32013KT 300V360 9999 FEW023 SCT039 08/02 Q1029 NOSIG
EHEH - Eindhoven
Gewijzigd: 30-03-2020 15:25
Bewolking  
Bewolking  
   Wind: NW 9.3 km/h
Wind: NW 9.3 km/h
Temperatuur: 8°C
Voelt als: 7°C
Dauwpunt: 0°C
Vochtigheid: 57%
Barometer: 1029 hPa
Bewolking: Overcast
Zicht: meer dan 10 km
Bewolking: Bewolking 3100 ft
EHEH 301325Z AUTO 31005KT 250V360 9999 OVC031 08/00 Q1029 BLU 32005KT 9999 BKN030 TEMPO SCT015 BKN020
EHGR - Gilze/Rijen
Gewijzigd: 30-03-2020 15:25
Bewolking  
Bewolking  
   Wind: WNW 11.1 km/h
Wind: WNW 11.1 km/h
Temperatuur: 9°C
Voelt als: 7°C
Dauwpunt: 2°C
Vochtigheid: 62%
Barometer: 1029 hPa
Bewolking: Overcast
Zicht: meer dan 10 km
Bewolking: Gedeeltelijk bewolkt 2500 ft,
Grotendeels bewolkt 3000 ft,
Bewolking 5400 ft
EHGR 301325Z AUTO 29006KT 240V340 9999 SCT025 BKN030 OVC054 09/02 Q1029 BLU 29009KT 9999 FEW039 BKN030 TEMPO 7000 -RA SCT016 BKN020
EHBK - Maastricht
Gewijzigd: 30-03-2020 15:25
Gedeeltelijk bewolkt  
Gedeeltelijk bewolkt  
   Wind: varieert 9.3 km/h
Wind: varieert 9.3 km/h
Temperatuur: 7°C
Voelt als: 5°C
Dauwpunt: -3°C
Vochtigheid: 49%
Barometer: 1028 hPa
Bewolking: Partly Cloudy
Zicht: meer dan 10 km
Bewolking: Gedeeltelijk bewolkt 4900 ft
EHBK 301325Z AUTO VRB05KT 9999 SCT049 07/M03 Q1028 NOSIG
EHVK - Volkel
Gewijzigd: 30-03-2020 15:25
Gedeeltelijk bewolkt  
Gedeeltelijk bewolkt  
   Wind: Westen 16.7 km/h
Wind: Westen 16.7 km/h
Temperatuur: 8°C
Voelt als: 5°C
Dauwpunt: 2°C
Vochtigheid: 66%
Barometer: 1028 hPa
Bewolking: Partly Cloudy
Zicht: meer dan 10 km
Bewolking: Gedeeltelijk bewolkt 5400 ft
EHVK 301325Z AUTO 28009KT 230V320 9999 SCT054 08/02 Q1028 BLU
EHFS - Vlissingen
Gewijzigd: 30-03-2020 15:25
Grotendeels bewolkt  
Grotendeels bewolkt  
   Wind: Noorden 24.1 km/h
Wind: Noorden 24.1 km/h
Temperatuur: 7°C
Voelt als: 3°C
Dauwpunt: 2°C
Vochtigheid: 71%
Barometer: 1030 hPa
Bewolking: Mostly Cloudy
Zicht: meer dan 10 km
Bewolking: Licht bewolkt 2100 ft,
Gedeeltelijk bewolkt 2800 ft,
Grotendeels bewolkt 3400 ft
EHFS 301325Z AUTO 36013KT 320V030 9999 FEW021/// SCT028/// BKN034/// 07/02 Q1030

Script ontwikkeld door  Saratoga-weather.org Aangepast voor de template door  Weerstation Leuven

Apparatuur in gebruik:

Weerstation
Davis VP2

Weerprogramma
WeatherLink

Weercomputer
Sponsor

Webleverancier
My provider

Davis VP2

WeatherLink

Sponsor

My provider